sensor_id;sensor_type;location;lat;lon;timestamp;temperature;humidity
439;DHT22;206;48.782;9.252;2023-04-28T00:01:13;13.80;32.50
439;DHT22;206;48.782;9.252;2023-04-28T00:03:39;13.90;32.50
439;DHT22;206;48.782;9.252;2023-04-28T00:06:05;13.90;33.00
439;DHT22;206;48.782;9.252;2023-04-28T00:08:30;13.90;32.40
439;DHT22;206;48.782;9.252;2023-04-28T00:10:56;13.90;32.60
439;DHT22;206;48.782;9.252;2023-04-28T00:13:22;13.90;32.50
439;DHT22;206;48.782;9.252;2023-04-28T00:15:51;14.00;32.30
439;DHT22;206;48.782;9.252;2023-04-28T00:18:21;14.00;32.30
439;DHT22;206;48.782;9.252;2023-04-28T00:20:46;14.00;32.30
439;DHT22;206;48.782;9.252;2023-04-28T00:23:12;13.90;33.00
439;DHT22;206;48.782;9.252;2023-04-28T00:25:38;13.90;33.00
439;DHT22;206;48.782;9.252;2023-04-28T00:28:03;13.90;32.30
439;DHT22;206;48.782;9.252;2023-04-28T00:30:29;13.90;32.80
439;DHT22;206;48.782;9.252;2023-04-28T00:32:55;13.90;32.60
439;DHT22;206;48.782;9.252;2023-04-28T00:35:21;13.90;32.60
439;DHT22;206;48.782;9.252;2023-04-28T00:37:47;13.90;32.60
439;DHT22;206;48.782;9.252;2023-04-28T00:40:12;13.80;32.10
439;DHT22;206;48.782;9.252;2023-04-28T00:42:38;13.90;32.20
439;DHT22;206;48.782;9.252;2023-04-28T00:45:04;13.90;32.40
439;DHT22;206;48.782;9.252;2023-04-28T00:47:35;13.90;32.60
439;DHT22;206;48.782;9.252;2023-04-28T00:50:02;13.90;33.00
439;DHT22;206;48.782;9.252;2023-04-28T00:52:28;13.80;33.10
439;DHT22;206;48.782;9.252;2023-04-28T00:54:54;13.80;33.40
439;DHT22;206;48.782;9.252;2023-04-28T00:57:21;13.80;33.40
439;DHT22;206;48.782;9.252;2023-04-28T00:59:47;13.80;33.20
439;DHT22;206;48.782;9.252;2023-04-28T01:02:13;13.80;32.90
439;DHT22;206;48.782;9.252;2023-04-28T01:04:43;13.90;32.80
439;DHT22;206;48.782;9.252;2023-04-28T01:07:09;13.90;32.20
439;DHT22;206;48.782;9.252;2023-04-28T01:09:36;13.90;32.30
439;DHT22;206;48.782;9.252;2023-04-28T01:12:01;13.80;32.80
439;DHT22;206;48.782;9.252;2023-04-28T01:14:27;13.80;33.00
439;DHT22;206;48.782;9.252;2023-04-28T01:16:52;13.80;33.10
439;DHT22;206;48.782;9.252;2023-04-28T01:19:47;13.80;33.20
439;DHT22;206;48.782;9.252;2023-04-28T01:22:12;13.80;33.00
439;DHT22;206;48.782;9.252;2023-04-28T01:24:40;13.90;33.00
439;DHT22;206;48.782;9.252;2023-04-28T01:27:06;13.90;32.80
439;DHT22;206;48.782;9.252;2023-04-28T01:29:31;13.90;32.70
439;DHT22;206;48.782;9.252;2023-04-28T01:31:57;13.90;32.80
439;DHT22;206;48.782;9.252;2023-04-28T01:34:22;13.90;33.10
439;DHT22;206;48.782;9.252;2023-04-28T01:36:48;13.90;33.10
439;DHT22;206;48.782;9.252;2023-04-28T01:39:13;13.90;33.20
439;DHT22;206;48.782;9.252;2023-04-28T01:41:39;13.90;33.40
439;DHT22;206;48.782;9.252;2023-04-28T01:44:05;13.90;33.80
439;DHT22;206;48.782;9.252;2023-04-28T01:46:32;13.90;34.00
439;DHT22;206;48.782;9.252;2023-04-28T01:48:57;13.80;34.20
439;DHT22;206;48.782;9.252;2023-04-28T01:51:23;13.80;34.20
439;DHT22;206;48.782;9.252;2023-04-28T01:53:49;13.90;34.10
439;DHT22;206;48.782;9.252;2023-04-28T01:56:33;13.90;34.20
439;DHT22;206;48.782;9.252;2023-04-28T01:58:58;13.90;34.20
439;DHT22;206;48.782;9.252;2023-04-28T02:01:24;13.90;34.30
439;DHT22;206;48.782;9.252;2023-04-28T02:03:50;13.80;34.50
439;DHT22;206;48.782;9.252;2023-04-28T02:06:15;13.80;34.70
439;DHT22;206;48.782;9.252;2023-04-28T02:08:41;13.80;34.80
439;DHT22;206;48.782;9.252;2023-04-28T02:11:06;13.80;35.00
439;DHT22;206;48.782;9.252;2023-04-28T02:13:32;13.80;35.20
439;DHT22;206;48.782;9.252;2023-04-28T02:16:01;13.70;35.40
439;DHT22;206;48.782;9.252;2023-04-28T02:18:26;13.70;35.50
439;DHT22;206;48.782;9.252;2023-04-28T02:20:52;13.70;35.80
439;DHT22;206;48.782;9.252;2023-04-28T02:23:18;13.70;36.10
439;DHT22;206;48.782;9.252;2023-04-28T02:25:43;13.80;35.90
439;DHT22;206;48.782;9.252;2023-04-28T02:28:09;13.80;35.70
439;DHT22;206;48.782;9.252;2023-04-28T02:30:34;13.80;35.10
439;DHT22;206;48.782;9.252;2023-04-28T02:33:00;13.90;35.00
439;DHT22;206;48.782;9.252;2023-04-28T02:35:26;13.90;34.80
439;DHT22;206;48.782;9.252;2023-04-28T02:37:51;13.90;35.00
439;DHT22;206;48.782;9.252;2023-04-28T02:40:17;14.00;34.60
439;DHT22;206;48.782;9.252;2023-04-28T02:42:43;14.00;34.50
439;DHT22;206;48.782;9.252;2023-04-28T02:45:09;14.00;34.30
439;DHT22;206;48.782;9.252;2023-04-28T02:47:35;14.00;34.30
439;DHT22;206;48.782;9.252;2023-04-28T02:50:00;14.00;34.60
439;DHT22;206;48.782;9.252;2023-04-28T02:52:26;14.00;34.60
439;DHT22;206;48.782;9.252;2023-04-28T02:54:51;14.00;35.00
439;DHT22;206;48.782;9.252;2023-04-28T02:57:21;14.00;34.80
439;DHT22;206;48.782;9.252;2023-04-28T02:59:46;14.00;34.60
439;DHT22;206;48.782;9.252;2023-04-28T03:02:12;14.10;34.60
439;DHT22;206;48.782;9.252;2023-04-28T03:04:38;14.10;35.00
439;DHT22;206;48.782;9.252;2023-04-28T03:07:03;14.20;34.90
439;DHT22;206;48.782;9.252;2023-04-28T03:09:29;14.20;35.50
439;DHT22;206;48.782;9.252;2023-04-28T03:11:54;14.10;35.60
439;DHT22;206;48.782;9.252;2023-04-28T03:14:20;14.20;36.50
439;DHT22;206;48.782;9.252;2023-04-28T03:16:46;14.10;37.00
439;DHT22;206;48.782;9.252;2023-04-28T03:19:11;14.20;36.70
439;DHT22;206;48.782;9.252;2023-04-28T03:21:37;14.20;37.50
439;DHT22;206;48.782;9.252;2023-04-28T03:24:02;14.20;37.50
439;DHT22;206;48.782;9.252;2023-04-28T03:26:28;14.10;37.60
439;DHT22;206;48.782;9.252;2023-04-28T03:28:54;14.10;38.40
439;DHT22;206;48.782;9.252;2023-04-28T03:31:21;14.10;39.20
439;DHT22;206;48.782;9.252;2023-04-28T03:33:46;14.10;39.20
439;DHT22;206;48.782;9.252;2023-04-28T03:36:12;14.10;39.70
439;DHT22;206;48.782;9.252;2023-04-28T03:38:37;14.00;40.50
439;DHT22;206;48.782;9.252;2023-04-28T03:41:03;14.10;42.50
439;DHT22;206;48.782;9.252;2023-04-28T03:43:29;14.10;42.90
439;DHT22;206;48.782;9.252;2023-04-28T03:45:54;14.00;44.80
439;DHT22;206;48.782;9.252;2023-04-28T03:48:20;13.90;45.80
439;DHT22;206;48.782;9.252;2023-04-28T03:50:46;13.80;46.70
439;DHT22;206;48.782;9.252;2023-04-28T03:53:11;13.70;47.60
439;DHT22;206;48.782;9.252;2023-04-28T03:55:37;13.80;47.10
439;DHT22;206;48.782;9.252;2023-04-28T03:58:03;13.80;47.10
439;DHT22;206;48.782;9.252;2023-04-28T04:00:28;13.70;48.50
439;DHT22;206;48.782;9.252;2023-04-28T04:02:54;13.70;51.10
439;DHT22;206;48.782;9.252;2023-04-28T04:05:19;13.60;51.00
439;DHT22;206;48.782;9.252;2023-04-28T04:07:45;13.70;52.60
439;DHT22;206;48.782;9.252;2023-04-28T04:10:11;13.70;51.80
439;DHT22;206;48.782;9.252;2023-04-28T04:12:36;13.70;51.80
439;DHT22;206;48.782;9.252;2023-04-28T04:15:02;13.80;52.00
439;DHT22;206;48.782;9.252;2023-04-28T04:17:28;13.70;51.80
439;DHT22;206;48.782;9.252;2023-04-28T04:19:54;13.70;51.80
439;DHT22;206;48.782;9.252;2023-04-28T04:22:19;13.80;52.50
439;DHT22;206;48.782;9.252;2023-04-28T04:24:45;13.80;51.70
439;DHT22;206;48.782;9.252;2023-04-28T04:27:11;13.80;52.00
439;DHT22;206;48.782;9.252;2023-04-28T04:29:36;13.80;52.30
439;DHT22;206;48.782;9.252;2023-04-28T04:32:02;13.80;51.90
439;DHT22;206;48.782;9.252;2023-04-28T04:34:28;13.80;51.70
439;DHT22;206;48.782;9.252;2023-04-28T04:36:53;13.80;50.70
439;DHT22;206;48.782;9.252;2023-04-28T04:39:19;13.80;50.60
439;DHT22;206;48.782;9.252;2023-04-28T04:41:44;13.90;49.10
439;DHT22;206;48.782;9.252;2023-04-28T04:44:10;13.90;49.40
439;DHT22;206;48.782;9.252;2023-04-28T04:46:36;13.90;49.70
439;DHT22;206;48.782;9.252;2023-04-28T04:49:01;14.00;49.40
439;DHT22;206;48.782;9.252;2023-04-28T04:51:27;14.00;48.50
439;DHT22;206;48.782;9.252;2023-04-28T04:53:53;14.00;48.10
439;DHT22;206;48.782;9.252;2023-04-28T04:56:19;14.00;48.20
439;DHT22;206;48.782;9.252;2023-04-28T04:58:45;14.00;48.30
439;DHT22;206;48.782;9.252;2023-04-28T05:01:11;14.00;48.50
439;DHT22;206;48.782;9.252;2023-04-28T05:03:36;14.10;49.20
439;DHT22;206;48.782;9.252;2023-04-28T05:06:02;14.10;49.80
439;DHT22;206;48.782;9.252;2023-04-28T05:08:28;14.10;50.20
439;DHT22;206;48.782;9.252;2023-04-28T05:10:54;14.00;51.00
439;DHT22;206;48.782;9.252;2023-04-28T05:13:19;14.00;52.10
439;DHT22;206;48.782;9.252;2023-04-28T05:15:45;14.00;53.20
439;DHT22;206;48.782;9.252;2023-04-28T05:18:11;14.00;54.90
439;DHT22;206;48.782;9.252;2023-04-28T05:20:38;13.90;56.30
439;DHT22;206;48.782;9.252;2023-04-28T05:23:05;14.00;56.30
439;DHT22;206;48.782;9.252;2023-04-28T05:25:31;14.00;56.20
439;DHT22;206;48.782;9.252;2023-04-28T05:27:56;13.90;56.10
439;DHT22;206;48.782;9.252;2023-04-28T05:30:22;13.90;56.80
439;DHT22;206;48.782;9.252;2023-04-28T05:32:47;13.80;57.60
439;DHT22;206;48.782;9.252;2023-04-28T05:35:13;13.90;59.30
439;DHT22;206;48.782;9.252;2023-04-28T05:37:39;13.90;59.90
439;DHT22;206;48.782;9.252;2023-04-28T05:40:08;13.90;61.60
439;DHT22;206;48.782;9.252;2023-04-28T05:42:34;13.90;63.30
439;DHT22;206;48.782;9.252;2023-04-28T05:45:00;13.90;63.60
439;DHT22;206;48.782;9.252;2023-04-28T05:47:25;13.80;65.00
439;DHT22;206;48.782;9.252;2023-04-28T05:49:51;13.80;66.60
439;DHT22;206;48.782;9.252;2023-04-28T05:52:16;13.80;67.60
439;DHT22;206;48.782;9.252;2023-04-28T05:54:42;13.80;67.60
439;DHT22;206;48.782;9.252;2023-04-28T05:57:08;13.90;68.90
439;DHT22;206;48.782;9.252;2023-04-28T05:59:33;13.90;70.20
439;DHT22;206;48.782;9.252;2023-04-28T06:02:27;13.80;70.60
439;DHT22;206;48.782;9.252;2023-04-28T06:05:20;13.90;73.00
439;DHT22;206;48.782;9.252;2023-04-28T06:08:18;13.80;72.80
439;DHT22;206;48.782;9.252;2023-04-28T06:11:35;13.90;74.10
439;DHT22;206;48.782;9.252;2023-04-28T06:14:28;13.90;74.40
439;DHT22;206;48.782;9.252;2023-04-28T06:17:14;14.00;74.80
439;DHT22;206;48.782;9.252;2023-04-28T06:35:15;14.10;74.70
439;DHT22;206;48.782;9.252;2023-04-28T06:37:41;14.10;74.70
439;DHT22;206;48.782;9.252;2023-04-28T06:40:07;14.10;74.90
439;DHT22;206;48.782;9.252;2023-04-28T06:42:33;14.10;74.90
439;DHT22;206;48.782;9.252;2023-04-28T06:44:58;14.10;75.10
439;DHT22;206;48.782;9.252;2023-04-28T06:47:24;14.10;74.80
439;DHT22;206;48.782;9.252;2023-04-28T06:49:49;14.20;73.10
439;DHT22;206;48.782;9.252;2023-04-28T06:52:16;14.10;74.30
439;DHT22;206;48.782;9.252;2023-04-28T06:54:41;14.20;73.00
439;DHT22;206;48.782;9.252;2023-04-28T06:57:07;14.20;72.60
439;DHT22;206;48.782;9.252;2023-04-28T06:59:33;14.20;72.30
439;DHT22;206;48.782;9.252;2023-04-28T07:01:59;14.20;74.30
439;DHT22;206;48.782;9.252;2023-04-28T07:04:25;14.30;74.50
439;DHT22;206;48.782;9.252;2023-04-28T07:06:51;14.20;73.20
439;DHT22;206;48.782;9.252;2023-04-28T07:09:17;14.20;74.20
439;DHT22;206;48.782;9.252;2023-04-28T07:11:43;14.20;73.90
439;DHT22;206;48.782;9.252;2023-04-28T07:14:09;14.20;73.70
439;DHT22;206;48.782;9.252;2023-04-28T07:16:35;14.30;73.90
439;DHT22;206;48.782;9.252;2023-04-28T07:19:00;14.20;73.20
439;DHT22;206;48.782;9.252;2023-04-28T07:21:26;14.20;74.00
439;DHT22;206;48.782;9.252;2023-04-28T07:23:52;14.20;73.60
439;DHT22;206;48.782;9.252;2023-04-28T07:26:21;14.20;74.30
439;DHT22;206;48.782;9.252;2023-04-28T07:28:47;14.30;74.70
439;DHT22;206;48.782;9.252;2023-04-28T07:31:13;14.40;75.40
439;DHT22;206;48.782;9.252;2023-04-28T07:33:38;14.50;74.60
439;DHT22;206;48.782;9.252;2023-04-28T07:36:04;14.50;73.80
439;DHT22;206;48.782;9.252;2023-04-28T07:38:32;14.50;72.70
439;DHT22;206;48.782;9.252;2023-04-28T07:40:58;14.60;73.10
439;DHT22;206;48.782;9.252;2023-04-28T07:43:23;14.60;72.30
439;DHT22;206;48.782;9.252;2023-04-28T07:45:49;14.60;71.80
439;DHT22;206;48.782;9.252;2023-04-28T07:48:15;14.60;72.30
439;DHT22;206;48.782;9.252;2023-04-28T07:50:40;14.50;72.20
439;DHT22;206;48.782;9.252;2023-04-28T07:53:06;14.60;72.30
439;DHT22;206;48.782;9.252;2023-04-28T07:55:32;14.60;72.30
439;DHT22;206;48.782;9.252;2023-04-28T07:57:58;14.60;73.20
439;DHT22;206;48.782;9.252;2023-04-28T08:00:24;14.70;73.20
439;DHT22;206;48.782;9.252;2023-04-28T08:02:50;14.70;73.10
439;DHT22;206;48.782;9.252;2023-04-28T08:05:16;14.80;74.00
439;DHT22;206;48.782;9.252;2023-04-28T08:07:42;14.80;74.80
439;DHT22;206;48.782;9.252;2023-04-28T08:10:11;14.80;75.90
439;DHT22;206;48.782;9.252;2023-04-28T08:12:37;14.80;76.10
439;DHT22;206;48.782;9.252;2023-04-28T08:15:04;14.90;77.40
439;DHT22;206;48.782;9.252;2023-04-28T08:17:29;14.90;77.30
439;DHT22;206;48.782;9.252;2023-04-28T08:19:55;14.90;77.00
439;DHT22;206;48.782;9.252;2023-04-28T08:22:21;14.90;77.50
439;DHT22;206;48.782;9.252;2023-04-28T08:24:46;14.90;78.30
439;DHT22;206;48.782;9.252;2023-04-28T08:27:12;14.90;79.20
439;DHT22;206;48.782;9.252;2023-04-28T08:29:37;15.00;80.20
439;DHT22;206;48.782;9.252;2023-04-28T08:32:04;15.00;78.00
439;DHT22;206;48.782;9.252;2023-04-28T08:34:31;15.00;78.70
439;DHT22;206;48.782;9.252;2023-04-28T08:36:57;15.00;78.00
439;DHT22;206;48.782;9.252;2023-04-28T08:39:23;14.90;78.10
439;DHT22;206;48.782;9.252;2023-04-28T08:41:51;14.90;82.40
439;DHT22;206;48.782;9.252;2023-04-28T08:44:17;14.90;83.10
439;DHT22;206;48.782;9.252;2023-04-28T08:46:43;15.00;84.00
439;DHT22;206;48.782;9.252;2023-04-28T08:49:17;15.20;83.80
439;DHT22;206;48.782;9.252;2023-04-28T08:51:52;15.30;80.70
439;DHT22;206;48.782;9.252;2023-04-28T08:54:21;15.40;81.80
439;DHT22;206;48.782;9.252;2023-04-28T08:56:47;15.40;80.70
439;DHT22;206;48.782;9.252;2023-04-28T08:59:13;15.40;79.20
439;DHT22;206;48.782;9.252;2023-04-28T09:01:40;15.40;79.40
439;DHT22;206;48.782;9.252;2023-04-28T09:04:06;15.50;79.60
439;DHT22;206;48.782;9.252;2023-04-28T09:06:35;15.50;79.10
439;DHT22;206;48.782;9.252;2023-04-28T09:12:09;15.80;79.10
439;DHT22;206;48.782;9.252;2023-04-28T09:14:37;15.90;78.40
439;DHT22;206;48.782;9.252;2023-04-28T09:17:12;15.90;78.50
439;DHT22;206;48.782;9.252;2023-04-28T09:19:39;15.80;77.70
439;DHT22;206;48.782;9.252;2023-04-28T09:22:07;15.90;78.90
439;DHT22;206;48.782;9.252;2023-04-28T09:24:38;15.80;77.20
439;DHT22;206;48.782;9.252;2023-04-28T09:27:13;15.90;78.40
439;DHT22;206;48.782;9.252;2023-04-28T09:29:51;16.00;78.50
439;DHT22;206;48.782;9.252;2023-04-28T09:32:21;16.10;78.20
439;DHT22;206;48.782;9.252;2023-04-28T09:34:49;16.20;78.40
439;DHT22;206;48.782;9.252;2023-04-28T09:37:17;16.30;78.20
439;DHT22;206;48.782;9.252;2023-04-28T09:39:49;16.50;76.80
439;DHT22;206;48.782;9.252;2023-04-28T09:45:00;16.80;73.40
439;DHT22;206;48.782;9.252;2023-04-28T09:47:28;16.90;73.20
439;DHT22;206;48.782;9.252;2023-04-28T09:49:55;17.00;71.90
439;DHT22;206;48.782;9.252;2023-04-28T09:52:24;17.20;71.70
439;DHT22;206;48.782;9.252;2023-04-28T09:54:51;17.30;69.70
439;DHT22;206;48.782;9.252;2023-04-28T09:57:17;17.30;68.90
439;DHT22;206;48.782;9.252;2023-04-28T09:59:47;17.40;68.30
439;DHT22;206;48.782;9.252;2023-04-28T10:02:17;17.70;67.90
439;DHT22;206;48.782;9.252;2023-04-28T10:04:49;17.90;65.20
439;DHT22;206;48.782;9.252;2023-04-28T10:07:17;18.10;65.00
439;DHT22;206;48.782;9.252;2023-04-28T10:09:47;18.40;63.30
439;DHT22;206;48.782;9.252;2023-04-28T10:12:19;18.60;61.80
439;DHT22;206;48.782;9.252;2023-04-28T10:14:45;18.90;59.10
439;DHT22;206;48.782;9.252;2023-04-28T10:17:16;19.40;56.90
439;DHT22;206;48.782;9.252;2023-04-28T10:19:44;20.00;54.90
439;DHT22;206;48.782;9.252;2023-04-28T10:22:26;20.20;52.80
439;DHT22;206;48.782;9.252;2023-04-28T10:27:38;20.20;52.70
439;DHT22;206;48.782;9.252;2023-04-28T10:30:14;20.40;52.30
439;DHT22;206;48.782;9.252;2023-04-28T10:32:40;20.60;51.10
439;DHT22;206;48.782;9.252;2023-04-28T10:38:09;20.90;50.10
439;DHT22;206;48.782;9.252;2023-04-28T10:40:46;21.10;48.60
439;DHT22;206;48.782;9.252;2023-04-28T10:56:25;21.80;44.30
439;DHT22;206;48.782;9.252;2023-04-28T10:58:58;21.70;45.10
439;DHT22;206;48.782;9.252;2023-04-28T11:01:28;21.70;46.70
439;DHT22;206;48.782;9.252;2023-04-28T11:04:06;21.80;47.10
439;DHT22;206;48.782;9.252;2023-04-28T11:06:40;21.80;45.90
439;DHT22;206;48.782;9.252;2023-04-28T11:11:37;21.70;44.80
439;DHT22;206;48.782;9.252;2023-04-28T11:17:02;21.70;48.90
439;DHT22;206;48.782;9.252;2023-04-28T11:19:46;21.50;49.00
439;DHT22;206;48.782;9.252;2023-04-28T11:22:20;21.60;48.30
439;DHT22;206;48.782;9.252;2023-04-28T11:27:33;21.50;48.30
439;DHT22;206;48.782;9.252;2023-04-28T11:29:59;21.50;47.70
439;DHT22;206;48.782;9.252;2023-04-28T11:32:33;21.60;47.50
439;DHT22;206;48.782;9.252;2023-04-28T11:34:59;21.70;45.70
439;DHT22;206;48.782;9.252;2023-04-28T11:37:25;21.70;45.90
439;DHT22;206;48.782;9.252;2023-04-28T11:39:51;21.80;46.30
439;DHT22;206;48.782;9.252;2023-04-28T11:42:17;21.90;45.60
439;DHT22;206;48.782;9.252;2023-04-28T11:44:52;22.10;45.70
439;DHT22;206;48.782;9.252;2023-04-28T11:47:32;22.30;44.70
439;DHT22;206;48.782;9.252;2023-04-28T11:49:58;22.40;44.80
439;DHT22;206;48.782;9.252;2023-04-28T11:52:25;22.30;44.00
439;DHT22;206;48.782;9.252;2023-04-28T11:54:56;22.30;44.70
439;DHT22;206;48.782;9.252;2023-04-28T11:57:22;22.20;44.70
439;DHT22;206;48.782;9.252;2023-04-28T11:59:48;22.20;43.40
439;DHT22;206;48.782;9.252;2023-04-28T12:02:14;22.20;43.50
439;DHT22;206;48.782;9.252;2023-04-28T12:04:42;21.80;42.90
439;DHT22;206;48.782;9.252;2023-04-28T12:07:16;21.80;42.90
439;DHT22;206;48.782;9.252;2023-04-28T12:09:42;21.80;44.30
439;DHT22;206;48.782;9.252;2023-04-28T12:14:55;21.70;45.20
439;DHT22;206;48.782;9.252;2023-04-28T12:17:33;21.70;44.20
439;DHT22;206;48.782;9.252;2023-04-28T12:20:02;21.70;42.80
439;DHT22;206;48.782;9.252;2023-04-28T12:22:28;21.70;41.20
439;DHT22;206;48.782;9.252;2023-04-28T12:25:07;21.40;40.40
439;DHT22;206;48.782;9.252;2023-04-28T12:27:35;21.30;41.80
439;DHT22;206;48.782;9.252;2023-04-28T12:30:04;21.10;41.30
439;DHT22;206;48.782;9.252;2023-04-28T12:32:48;21.10;40.40
439;DHT22;206;48.782;9.252;2023-04-28T12:35:14;21.10;39.30
439;DHT22;206;48.782;9.252;2023-04-28T12:37:41;21.00;38.50
439;DHT22;206;48.782;9.252;2023-04-28T12:40:08;20.90;39.20
439;DHT22;206;48.782;9.252;2023-04-28T12:42:34;20.80;39.50
439;DHT22;206;48.782;9.252;2023-04-28T12:45:00;20.70;40.10
439;DHT22;206;48.782;9.252;2023-04-28T12:47:25;20.60;41.70
439;DHT22;206;48.782;9.252;2023-04-28T12:49:51;20.60;39.70
439;DHT22;206;48.782;9.252;2023-04-28T12:52:20;20.40;42.50
439;DHT22;206;48.782;9.252;2023-04-28T12:54:47;20.10;50.90
439;DHT22;206;48.782;9.252;2023-04-28T12:57:14;19.60;58.60
439;DHT22;206;48.782;9.252;2023-04-28T12:59:39;19.20;62.50
439;DHT22;206;48.782;9.252;2023-04-28T13:02:06;18.70;62.90
439;DHT22;206;48.782;9.252;2023-04-28T13:04:31;18.50;66.00
439;DHT22;206;48.782;9.252;2023-04-28T13:06:57;18.40;66.20
439;DHT22;206;48.782;9.252;2023-04-28T13:09:24;18.40;64.20
439;DHT22;206;48.782;9.252;2023-04-28T13:11:50;18.60;62.90
439;DHT22;206;48.782;9.252;2023-04-28T13:14:18;18.90;59.90
439;DHT22;206;48.782;9.252;2023-04-28T13:16:44;19.20;59.40
439;DHT22;206;48.782;9.252;2023-04-28T13:19:10;19.60;53.70
439;DHT22;206;48.782;9.252;2023-04-28T13:21:38;19.60;51.20
439;DHT22;206;48.782;9.252;2023-04-28T13:24:06;19.80;52.50
439;DHT22;206;48.782;9.252;2023-04-28T13:26:33;19.70;49.00
439;DHT22;206;48.782;9.252;2023-04-28T13:28:59;19.80;49.50
439;DHT22;206;48.782;9.252;2023-04-28T13:31:27;20.10;50.50
439;DHT22;206;48.782;9.252;2023-04-28T13:33:53;20.40;48.00
439;DHT22;206;48.782;9.252;2023-04-28T13:36:19;20.30;46.60
439;DHT22;206;48.782;9.252;2023-04-28T13:38:44;20.30;45.70
439;DHT22;206;48.782;9.252;2023-04-28T13:41:13;20.10;45.50
439;DHT22;206;48.782;9.252;2023-04-28T13:43:39;20.00;43.20
439;DHT22;206;48.782;9.252;2023-04-28T13:46:06;20.00;43.60
439;DHT22;206;48.782;9.252;2023-04-28T13:48:36;20.00;43.30
439;DHT22;206;48.782;9.252;2023-04-28T13:51:02;19.60;43.10
439;DHT22;206;48.782;9.252;2023-04-28T13:53:28;19.40;46.80
439;DHT22;206;48.782;9.252;2023-04-28T13:55:54;19.30;44.80
439;DHT22;206;48.782;9.252;2023-04-28T13:58:26;19.30;44.60
439;DHT22;206;48.782;9.252;2023-04-28T14:00:52;19.30;47.10
439;DHT22;206;48.782;9.252;2023-04-28T14:03:19;19.20;51.30
439;DHT22;206;48.782;9.252;2023-04-28T14:05:47;19.30;51.40
439;DHT22;206;48.782;9.252;2023-04-28T14:08:16;19.40;51.40
439;DHT22;206;48.782;9.252;2023-04-28T14:10:42;19.50;52.10
439;DHT22;206;48.782;9.252;2023-04-28T14:13:08;19.60;51.50
439;DHT22;206;48.782;9.252;2023-04-28T14:15:34;19.80;50.50
439;DHT22;206;48.782;9.252;2023-04-28T14:18:01;19.80;52.40
439;DHT22;206;48.782;9.252;2023-04-28T14:20:26;19.80;50.60
439;DHT22;206;48.782;9.252;2023-04-28T14:22:52;19.80;52.40
439;DHT22;206;48.782;9.252;2023-04-28T14:25:18;19.80;52.40
439;DHT22;206;48.782;9.252;2023-04-28T14:27:43;19.80;52.80
439;DHT22;206;48.782;9.252;2023-04-28T14:30:09;19.80;49.70
439;DHT22;206;48.782;9.252;2023-04-28T14:32:36;19.60;52.20
439;DHT22;206;48.782;9.252;2023-04-28T14:35:02;19.30;52.00
439;DHT22;206;48.782;9.252;2023-04-28T14:37:33;19.10;54.70
439;DHT22;206;48.782;9.252;2023-04-28T14:39:59;19.10;57.40
439;DHT22;206;48.782;9.252;2023-04-28T14:42:29;19.20;57.40
439;DHT22;206;48.782;9.252;2023-04-28T14:44:56;19.30;59.60
439;DHT22;206;48.782;9.252;2023-04-28T14:47:22;19.40;60.30
439;DHT22;206;48.782;9.252;2023-04-28T14:49:49;19.70;60.00
439;DHT22;206;48.782;9.252;2023-04-28T14:52:15;19.90;56.80
439;DHT22;206;48.782;9.252;2023-04-28T14:54:42;20.00;55.50
439;DHT22;206;48.782;9.252;2023-04-28T14:57:07;20.10;55.20
439;DHT22;206;48.782;9.252;2023-04-28T14:59:33;20.30;54.00
439;DHT22;206;48.782;9.252;2023-04-28T15:02:00;20.40;52.90
439;DHT22;206;48.782;9.252;2023-04-28T15:04:25;20.60;53.10
439;DHT22;206;48.782;9.252;2023-04-28T15:06:55;20.70;53.20
439;DHT22;206;48.782;9.252;2023-04-28T15:09:21;20.70;53.20
439;DHT22;206;48.782;9.252;2023-04-28T15:11:47;20.60;52.30
439;DHT22;206;48.782;9.252;2023-04-28T15:14:13;20.40;52.30
439;DHT22;206;48.782;9.252;2023-04-28T15:16:39;20.10;54.60
439;DHT22;206;48.782;9.252;2023-04-28T15:19:05;20.00;56.90
439;DHT22;206;48.782;9.252;2023-04-28T15:21:30;19.80;58.40
439;DHT22;206;48.782;9.252;2023-04-28T15:23:56;19.70;58.70
439;DHT22;206;48.782;9.252;2023-04-28T15:26:24;19.60;58.90
439;DHT22;206;48.782;9.252;2023-04-28T15:28:50;19.50;59.60
439;DHT22;206;48.782;9.252;2023-04-28T15:31:16;19.50;59.20
439;DHT22;206;48.782;9.252;2023-04-28T15:33:42;19.50;59.50
439;DHT22;206;48.782;9.252;2023-04-28T15:36:07;19.50;58.10
439;DHT22;206;48.782;9.252;2023-04-28T15:38:33;19.50;58.60
439;DHT22;206;48.782;9.252;2023-04-28T15:40:59;19.50;58.90
439;DHT22;206;48.782;9.252;2023-04-28T15:43:25;19.50;59.00
439;DHT22;206;48.782;9.252;2023-04-28T15:45:51;19.50;59.70
439;DHT22;206;48.782;9.252;2023-04-28T15:48:16;19.40;60.10
439;DHT22;206;48.782;9.252;2023-04-28T15:50:42;19.30;61.70
439;DHT22;206;48.782;9.252;2023-04-28T15:53:08;19.10;63.00
439;DHT22;206;48.782;9.252;2023-04-28T15:55:33;19.10;62.70
439;DHT22;206;48.782;9.252;2023-04-28T15:57:59;19.00;62.50
439;DHT22;206;48.782;9.252;2023-04-28T16:00:25;18.90;63.20
439;DHT22;206;48.782;9.252;2023-04-28T16:02:51;18.80;63.80
439;DHT22;206;48.782;9.252;2023-04-28T16:05:16;18.80;64.90
439;DHT22;206;48.782;9.252;2023-04-28T16:07:42;18.80;65.20
439;DHT22;206;48.782;9.252;2023-04-28T16:10:13;18.80;65.20
439;DHT22;206;48.782;9.252;2023-04-28T16:12:40;18.80;65.30
439;DHT22;206;48.782;9.252;2023-04-28T16:15:08;18.70;65.50
439;DHT22;206;48.782;9.252;2023-04-28T16:17:34;18.70;65.20
439;DHT22;206;48.782;9.252;2023-04-28T16:20:02;18.70;64.80
439;DHT22;206;48.782;9.252;2023-04-28T16:22:29;18.60;65.00
439;DHT22;206;48.782;9.252;2023-04-28T16:24:55;18.60;64.70
439;DHT22;206;48.782;9.252;2023-04-28T16:27:21;18.60;66.10
439;DHT22;206;48.782;9.252;2023-04-28T16:29:47;18.60;66.10
439;DHT22;206;48.782;9.252;2023-04-28T16:32:13;18.60;67.20
439;DHT22;206;48.782;9.252;2023-04-28T16:34:39;18.50;67.60
439;DHT22;206;48.782;9.252;2023-04-28T16:37:05;18.40;69.10
439;DHT22;206;48.782;9.252;2023-04-28T16:39:35;18.30;69.00
439;DHT22;206;48.782;9.252;2023-04-28T16:42:00;18.30;70.50
439;DHT22;206;48.782;9.252;2023-04-28T16:44:29;18.30;70.90
439;DHT22;206;48.782;9.252;2023-04-28T16:46:55;18.30;73.50
439;DHT22;206;48.782;9.252;2023-04-28T16:49:24;18.30;75.20
439;DHT22;206;48.782;9.252;2023-04-28T16:51:57;18.30;75.40
439;DHT22;206;48.782;9.252;2023-04-28T16:54:24;18.30;75.20
439;DHT22;206;48.782;9.252;2023-04-28T16:56:49;18.30;74.80
439;DHT22;206;48.782;9.252;2023-04-28T16:59:15;18.30;75.30
439;DHT22;206;48.782;9.252;2023-04-28T17:01:41;18.40;74.10
439;DHT22;206;48.782;9.252;2023-04-28T17:04:07;18.50;73.20
439;DHT22;206;48.782;9.252;2023-04-28T17:06:33;18.50;72.50
439;DHT22;206;48.782;9.252;2023-04-28T17:08:58;18.50;72.50
439;DHT22;206;48.782;9.252;2023-04-28T17:11:24;18.40;73.80
439;DHT22;206;48.782;9.252;2023-04-28T17:13:50;18.40;72.40
439;DHT22;206;48.782;9.252;2023-04-28T17:16:15;18.40;74.50
439;DHT22;206;48.782;9.252;2023-04-28T17:18:41;18.40;74.70
439;DHT22;206;48.782;9.252;2023-04-28T17:21:07;18.30;74.00
439;DHT22;206;48.782;9.252;2023-04-28T17:23:32;18.20;74.60
439;DHT22;206;48.782;9.252;2023-04-28T17:25:58;18.10;75.70